createdAt,value
2024-01-05T00:00:49.002Z,1154.00
2024-01-05T00:01:48.905Z,1153.00
2024-01-05T00:02:48.982Z,1153.00
2024-01-05T00:03:48.946Z,1156.00
2024-01-05T00:04:48.881Z,1161.00
2024-01-05T00:05:48.937Z,1155.00
2024-01-05T00:06:49.008Z,1156.00
2024-01-05T00:07:48.828Z,1155.00
2024-01-05T00:08:48.831Z,1160.00
2024-01-05T00:09:48.803Z,1145.00
2024-01-05T00:10:48.787Z,1155.00
2024-01-05T00:11:48.810Z,1157.00
2024-01-05T00:12:48.782Z,1144.00
2024-01-05T00:13:48.758Z,1142.00
2024-01-05T00:14:48.776Z,1143.00
2024-01-05T00:15:48.763Z,1143.00
2024-01-05T00:16:48.699Z,1144.00
2024-01-05T00:17:48.842Z,1143.00
2024-01-05T00:18:48.893Z,1145.00
2024-01-05T00:19:48.731Z,1147.00
2024-01-05T00:20:48.723Z,1139.00
2024-01-05T00:21:48.657Z,1152.00
2024-01-05T00:22:48.627Z,1136.00
2024-01-05T00:23:48.701Z,1138.00
2024-01-05T00:24:48.609Z,1141.00
2024-01-05T00:25:48.613Z,1132.00
2024-01-05T00:26:48.598Z,1139.00
2024-01-05T00:27:48.595Z,1134.00
2024-01-05T00:28:48.572Z,1136.00
2024-01-05T00:29:48.563Z,1143.00
2024-01-05T00:30:48.655Z,1131.00
2024-01-05T00:31:48.567Z,1134.00
2024-01-05T00:32:48.747Z,1145.00
2024-01-05T00:33:48.683Z,1142.00
2024-01-05T00:34:48.695Z,1130.00
2024-01-05T00:35:48.647Z,1132.00
2024-01-05T00:36:48.647Z,1122.00
2024-01-05T00:37:48.720Z,1123.00
2024-01-05T00:38:49.257Z,1132.00
2024-01-05T00:39:48.822Z,1128.00
2024-01-05T00:40:48.815Z,1128.00
2024-01-05T00:41:49.044Z,1123.00
2024-01-05T00:42:48.790Z,1126.00
2024-01-05T00:43:48.792Z,1129.00
2024-01-05T00:44:48.819Z,1133.00
2024-01-05T00:45:48.773Z,1124.00
2024-01-05T00:46:48.741Z,1119.00
2024-01-05T00:47:48.980Z,1120.00
2024-01-05T00:48:48.847Z,1127.00
2024-01-05T00:49:48.838Z,1115.00
2024-01-05T00:50:48.735Z,1121.00
2024-01-05T00:51:48.715Z,1114.00
2024-01-05T00:52:48.712Z,1114.00
2024-01-05T00:53:48.843Z,1115.00
2024-01-05T00:54:48.686Z,1114.00
2024-01-05T00:55:48.701Z,1115.00
2024-01-05T00:56:48.758Z,1116.00
2024-01-05T00:57:48.654Z,1111.00
2024-01-05T00:58:48.645Z,1115.00
2024-01-05T00:59:48.760Z,1122.00
2024-01-05T01:00:48.703Z,1121.00
2024-01-05T01:01:48.613Z,1117.00
2024-01-05T01:02:48.617Z,1115.00
2024-01-05T01:03:48.675Z,1105.00
2024-01-05T01:04:48.666Z,1109.00
2024-01-05T01:05:48.590Z,1109.00
2024-01-05T01:06:48.603Z,1109.00
2024-01-05T01:07:48.532Z,1108.00
2024-01-05T01:08:48.522Z,1116.00
2024-01-05T01:09:48.513Z,1117.00
2024-01-05T01:10:48.527Z,1110.00
2024-01-05T01:11:48.492Z,1108.00
2024-01-05T01:12:48.495Z,1105.00
2024-01-05T01:13:48.469Z,1108.00
2024-01-05T01:14:48.443Z,1104.00
2024-01-05T01:15:48.450Z,1103.00
2024-01-05T01:16:48.418Z,1105.00
2024-01-05T01:17:48.486Z,1097.00
2024-01-05T01:18:48.575Z,1101.00
2024-01-05T01:19:48.416Z,1097.00
2024-01-05T01:20:48.382Z,1099.00
2024-01-05T01:21:48.355Z,1095.00
2024-01-05T01:22:48.349Z,1091.00
2024-01-05T01:23:48.336Z,1090.00
2024-01-05T01:24:48.313Z,1090.00
2024-01-05T01:25:48.309Z,1090.00
2024-01-05T01:26:48.276Z,1092.00
2024-01-05T01:27:48.293Z,1094.00
2024-01-05T01:28:48.232Z,1090.00
2024-01-05T01:29:48.238Z,1084.00
2024-01-05T01:30:48.324Z,1087.00
2024-01-05T01:31:48.216Z,1082.00
2024-01-05T01:32:48.214Z,1092.00
2024-01-05T01:33:48.291Z,1086.00
2024-01-05T01:34:48.226Z,1091.00
2024-01-05T01:35:48.143Z,1081.00
2024-01-05T01:36:48.167Z,1082.00
2024-01-05T01:37:48.110Z,1083.00
2024-01-05T01:38:48.108Z,1083.00
2024-01-05T01:39:48.101Z,1084.00
2024-01-05T01:40:48.079Z,1089.00
2024-01-05T01:41:48.049Z,1088.00
2024-01-05T01:42:48.101Z,1081.00
2024-01-05T01:43:52.074Z,1084.00
2024-01-05T01:44:49.035Z,1084.00
2024-01-05T01:45:48.027Z,1084.00
2024-01-05T01:46:48.004Z,1085.00
2024-01-05T01:47:48.077Z,1085.00
2024-01-05T01:48:48.196Z,1091.00
2024-01-05T01:49:48.055Z,1096.00
2024-01-05T01:50:47.955Z,1083.00
2024-01-05T01:51:47.909Z,1093.00
2024-01-05T01:52:47.892Z,1085.00
2024-01-05T01:53:47.948Z,1085.00
2024-01-05T01:54:47.863Z,1086.00
2024-01-05T01:55:47.879Z,1080.00
2024-01-05T01:56:47.844Z,1083.00
2024-01-05T01:57:47.844Z,1080.00
2024-01-05T01:58:47.834Z,1085.00
2024-01-05T01:59:47.801Z,1085.00
2024-01-05T02:00:47.887Z,1083.00
2024-01-05T02:01:47.778Z,1078.00
2024-01-05T02:02:47.757Z,1068.00
2024-01-05T02:03:47.806Z,1077.00
2024-01-05T02:04:47.822Z,1072.00
2024-01-05T02:05:47.706Z,1066.00
2024-01-05T02:06:47.691Z,1071.00
2024-01-05T02:07:47.668Z,1068.00
2024-01-05T02:08:47.669Z,1066.00
2024-01-05T02:09:47.674Z,1060.00
2024-01-05T02:10:47.688Z,1066.00
2024-01-05T02:11:47.652Z,1062.00
2024-01-05T02:12:47.648Z,1056.00
2024-01-05T02:13:47.602Z,1054.00
2024-01-05T02:14:47.606Z,1052.00
2024-01-05T02:15:47.586Z,1054.00
2024-01-05T02:16:47.563Z,1054.00
2024-01-05T02:17:47.735Z,1057.00
2024-01-05T02:18:47.588Z,1052.00
2024-01-05T02:19:47.670Z,1059.00
2024-01-05T02:20:47.514Z,1050.00
2024-01-05T02:21:47.482Z,1050.00
2024-01-05T02:22:47.490Z,1051.00
2024-01-05T02:23:47.463Z,1050.00
2024-01-05T02:24:47.465Z,1057.00
2024-01-05T02:25:47.440Z,1059.00
2024-01-05T02:26:47.906Z,1052.00
2024-01-05T02:27:47.396Z,1048.00
2024-01-05T02:28:47.387Z,1048.00
2024-01-05T02:29:47.376Z,1050.00
2024-01-05T02:30:47.447Z,1049.00
2024-01-05T02:31:47.358Z,1053.00
2024-01-05T02:32:47.338Z,1052.00
2024-01-05T02:33:47.476Z,1056.00
2024-01-05T02:34:47.332Z,1046.00
2024-01-05T02:35:47.291Z,1053.00
2024-01-05T02:36:47.444Z,1056.00
2024-01-05T02:37:47.245Z,1049.00
2024-01-05T02:38:47.250Z,1035.00
2024-01-05T02:39:47.223Z,1041.00
2024-01-05T02:40:47.242Z,1044.00
2024-01-05T02:41:47.199Z,1045.00
2024-01-05T02:42:47.185Z,1038.00
2024-01-05T02:43:47.170Z,1036.00
2024-01-05T02:44:47.152Z,1044.00
2024-01-05T02:45:47.392Z,1044.00
2024-01-05T02:46:47.143Z,1044.00
2024-01-05T02:47:47.217Z,1045.00
2024-01-05T02:48:47.319Z,1039.00
2024-01-05T02:49:47.152Z,1032.00
2024-01-05T02:50:47.086Z,1040.00
2024-01-05T02:51:47.085Z,1035.00
2024-01-05T02:52:47.049Z,1043.00
2024-01-05T02:53:47.040Z,1042.00
2024-01-05T02:54:47.022Z,1043.00
2024-01-05T02:55:47.038Z,1038.00
2024-01-05T02:56:46.993Z,1038.00
2024-01-05T02:57:46.992Z,1037.00
2024-01-05T02:58:46.975Z,1041.00
2024-01-05T02:59:46.962Z,1039.00
2024-01-05T03:00:47.169Z,1042.00
2024-01-05T03:01:46.919Z,1041.00
2024-01-05T03:02:46.912Z,1044.00
2024-01-05T03:03:50.537Z,1037.00
2024-01-05T03:04:46.934Z,1039.00
2024-01-05T03:05:46.943Z,1042.00
2024-01-05T03:06:47.386Z,1044.00
2024-01-05T03:07:46.830Z,1040.00
2024-01-05T03:08:46.820Z,1038.00
2024-01-05T03:09:46.813Z,1030.00
2024-01-05T03:10:46.805Z,1039.00
2024-01-05T03:11:46.788Z,1039.00
2024-01-05T03:12:46.785Z,1039.00
2024-01-05T03:13:46.783Z,1043.00
2024-01-05T03:14:46.746Z,1033.00
2024-01-05T03:15:46.728Z,1006.00
2024-01-05T03:16:46.902Z,982.00
2024-01-05T03:17:46.719Z,955.00
2024-01-05T03:18:46.825Z,911.00
2024-01-05T03:19:46.752Z,879.00
2024-01-05T03:20:46.668Z,837.00
2024-01-05T03:21:46.641Z,809.00
2024-01-05T03:22:46.656Z,767.00
2024-01-05T03:23:46.624Z,727.00
2024-01-05T03:24:46.615Z,685.00
2024-01-05T03:25:46.595Z,662.00
2024-01-05T03:26:46.588Z,645.00
2024-01-05T03:27:46.582Z,629.00
2024-01-05T03:28:46.557Z,610.00
2024-01-05T03:29:46.563Z,599.00
2024-01-05T03:30:46.681Z,585.00
2024-01-05T03:31:46.539Z,589.00
2024-01-05T03:32:46.653Z,572.00
2024-01-05T03:33:46.724Z,555.00
2024-01-05T03:34:46.541Z,581.00
2024-01-05T03:35:46.501Z,599.00
2024-01-05T03:36:46.914Z,600.00
2024-01-05T03:37:46.489Z,600.00
2024-01-05T03:38:46.486Z,602.00
2024-01-05T03:39:46.515Z,602.00
2024-01-05T03:40:46.511Z,600.00
2024-01-05T03:41:46.528Z,601.00
2024-01-05T03:42:46.592Z,604.00
2024-01-05T03:43:46.642Z,601.00
2024-01-05T03:44:46.698Z,600.00
2024-01-05T03:45:46.970Z,601.00
2024-01-05T03:46:46.795Z,600.00
2024-01-05T03:47:46.906Z,601.00
2024-01-05T03:48:47.005Z,602.00
2024-01-05T03:49:47.050Z,600.00
2024-01-05T03:50:47.182Z,600.00
2024-01-05T03:51:47.145Z,600.00
2024-01-05T03:52:47.132Z,597.00
2024-01-05T03:53:47.147Z,588.00
2024-01-05T03:54:47.175Z,589.00
2024-01-05T03:55:47.155Z,585.00
2024-01-05T03:56:47.106Z,582.00
2024-01-05T03:57:47.108Z,574.00
2024-01-05T03:58:47.158Z,601.00
2024-01-05T03:59:47.119Z,602.00
2024-01-05T04:00:47.206Z,602.00
2024-01-05T04:01:47.164Z,605.00
2024-01-05T04:02:47.195Z,605.00
2024-01-05T04:03:47.224Z,603.00
2024-01-05T04:04:47.202Z,605.00
2024-01-05T04:05:47.169Z,601.00
2024-01-05T04:06:47.583Z,602.00
2024-01-05T04:07:47.121Z,600.00
2024-01-05T04:08:47.166Z,601.00
2024-01-05T04:09:47.226Z,602.00
2024-01-05T04:10:47.271Z,601.00
2024-01-05T04:11:47.286Z,599.00
2024-01-05T04:12:47.301Z,599.00
2024-01-05T04:13:47.309Z,599.00
2024-01-05T04:14:47.316Z,597.00
2024-01-05T04:15:47.333Z,596.00
2024-01-05T04:16:47.534Z,597.00
2024-01-05T04:17:47.318Z,599.00
2024-01-05T04:18:47.457Z,605.00
2024-01-05T04:19:47.331Z,597.00
2024-01-05T04:20:47.323Z,601.00
2024-01-05T04:21:47.315Z,595.00
2024-01-05T04:22:47.306Z,597.00
2024-01-05T04:23:47.298Z,592.00
2024-01-05T04:24:47.312Z,592.00
2024-01-05T04:25:47.317Z,605.00
2024-01-05T04:26:47.311Z,603.00
2024-01-05T04:27:47.324Z,604.00
2024-01-05T04:28:47.309Z,600.00
2024-01-05T04:29:47.310Z,599.00
2024-01-05T04:30:47.427Z,603.00
2024-01-05T04:31:47.379Z,600.00
2024-01-05T04:32:47.380Z,604.00
2024-01-05T04:33:47.519Z,603.00
2024-01-05T04:34:47.368Z,603.00
2024-01-05T04:35:47.321Z,604.00
2024-01-05T04:36:47.683Z,601.00
2024-01-05T04:37:47.328Z,606.00
2024-01-05T04:38:54.672Z,600.00
2024-01-05T04:39:54.601Z,600.00
2024-01-05T04:40:54.620Z,600.00
2024-01-05T04:41:54.643Z,600.00
2024-01-05T04:42:54.637Z,600.00
2024-01-05T04:43:54.641Z,600.00
2024-01-05T04:44:54.685Z,603.00
2024-01-05T04:45:54.680Z,602.00
2024-01-05T04:46:54.673Z,600.00
2024-01-05T04:47:54.760Z,606.00
2024-01-05T04:48:54.811Z,603.00
2024-01-05T04:49:54.720Z,605.00
2024-01-05T04:50:54.755Z,604.00
2024-01-05T04:51:54.739Z,600.00
2024-01-05T04:52:54.705Z,602.00
2024-01-05T04:53:54.728Z,601.00
2024-01-05T04:54:54.728Z,601.00
2024-01-05T04:55:54.723Z,603.00
2024-01-05T04:56:54.758Z,600.00
2024-01-05T04:57:54.745Z,600.00
2024-01-05T04:58:54.733Z,604.00
2024-01-05T04:59:54.786Z,606.00
2024-01-05T05:00:55.531Z,605.00
2024-01-05T05:01:54.751Z,607.00
2024-01-05T05:02:54.944Z,604.00
2024-01-05T05:03:54.816Z,602.00
2024-01-05T05:04:54.788Z,603.00
2024-01-05T05:05:55.293Z,606.00
2024-01-05T05:06:54.773Z,607.00
2024-01-05T05:07:54.798Z,605.00
2024-01-05T05:08:54.832Z,608.00
2024-01-05T05:09:54.791Z,606.00
2024-01-05T05:10:55.165Z,606.00
2024-01-05T05:11:54.849Z,602.00
2024-01-05T05:12:54.816Z,602.00
2024-01-05T05:13:54.809Z,605.00
2024-01-05T05:14:54.854Z,605.00
2024-01-05T05:15:54.825Z,603.00
2024-01-05T05:16:54.838Z,600.00
2024-01-05T05:17:55.283Z,603.00
2024-01-05T05:18:54.993Z,600.00
2024-01-05T05:19:54.841Z,603.00
2024-01-05T05:20:54.954Z,609.00
2024-01-05T05:21:54.880Z,609.00
2024-01-05T05:22:54.871Z,608.00
2024-01-05T05:23:54.914Z,609.00
2024-01-05T05:24:54.902Z,606.00
2024-01-05T05:25:54.957Z,612.00
2024-01-05T05:26:54.989Z,610.00
2024-01-05T05:27:55.010Z,605.00
2024-01-05T05:28:55.040Z,608.00
2024-01-05T05:29:55.089Z,610.00
2024-01-05T05:30:55.270Z,609.00
2024-01-05T05:31:55.110Z,606.00
2024-01-05T05:32:55.317Z,610.00
2024-01-05T05:33:55.297Z,611.00
2024-01-05T05:34:55.219Z,612.00
2024-01-05T05:35:55.233Z,613.00
2024-01-05T05:36:55.225Z,612.00
2024-01-05T05:37:55.257Z,610.00
2024-01-05T05:38:55.340Z,612.00
2024-01-05T05:39:55.318Z,614.00
2024-01-05T05:40:55.372Z,613.00
2024-01-05T05:41:55.419Z,614.00
2024-01-05T05:42:55.383Z,611.00
2024-01-05T05:43:55.409Z,614.00
2024-01-05T05:44:55.416Z,615.00
2024-01-05T05:45:55.651Z,616.00
2024-01-05T05:46:55.403Z,614.00
2024-01-05T05:47:55.493Z,615.00
2024-01-05T05:48:55.613Z,616.00
2024-01-05T05:49:55.453Z,618.00
2024-01-05T05:50:55.772Z,619.00
2024-01-05T05:51:55.465Z,624.00
2024-01-05T05:52:55.473Z,623.00
2024-01-05T05:53:55.598Z,624.00
2024-01-05T05:54:55.487Z,624.00
2024-01-05T05:55:55.512Z,624.00
2024-01-05T05:56:55.560Z,626.00
2024-01-05T05:57:55.526Z,628.00
2024-01-05T05:58:55.536Z,629.00
2024-01-05T05:59:55.582Z,625.00
2024-01-05T06:00:55.979Z,627.00
2024-01-05T06:01:55.685Z,630.00
2024-01-05T06:02:55.604Z,625.00
2024-01-05T06:03:55.681Z,622.00
2024-01-05T06:04:55.620Z,626.00
2024-01-05T06:05:56.163Z,625.00
2024-01-05T06:06:55.705Z,628.00
2024-01-05T06:07:55.643Z,622.00
2024-01-05T06:08:55.674Z,623.00
2024-01-05T06:09:55.667Z,627.00
2024-01-05T06:10:56.555Z,626.00
2024-01-05T06:11:55.755Z,630.00
2024-01-05T06:12:55.686Z,626.00
2024-01-05T06:13:55.709Z,624.00
2024-01-05T06:14:55.742Z,619.00
2024-01-05T06:15:55.743Z,625.00
2024-01-05T06:16:55.734Z,626.00
2024-01-05T06:17:55.895Z,626.00
2024-01-05T06:18:55.904Z,625.00
2024-01-05T06:19:55.802Z,625.00
2024-01-05T06:20:55.826Z,626.00
2024-01-05T06:21:55.788Z,630.00
2024-01-05T06:22:55.835Z,630.00
2024-01-05T06:23:55.830Z,627.00
2024-01-05T06:24:55.812Z,631.00
2024-01-05T06:25:55.806Z,632.00
2024-01-05T06:26:55.840Z,630.00
2024-01-05T06:27:55.866Z,633.00
2024-01-05T06:28:55.844Z,629.00
2024-01-05T06:29:55.860Z,633.00
2024-01-05T06:30:56.009Z,633.00
2024-01-05T06:31:55.864Z,631.00
2024-01-05T06:32:56.001Z,636.00
2024-01-05T06:33:56.845Z,632.00
2024-01-05T06:34:55.970Z,638.00
2024-01-05T06:35:56.036Z,636.00
2024-01-05T06:36:56.052Z,640.00
2024-01-05T06:37:56.117Z,635.00
2024-01-05T06:38:56.230Z,637.00
2024-01-05T06:39:56.221Z,637.00
2024-01-05T06:40:56.239Z,637.00
2024-01-05T06:41:56.286Z,637.00
2024-01-05T06:42:56.263Z,637.00
2024-01-05T06:43:56.270Z,635.00
2024-01-05T06:44:56.322Z,637.00
2024-01-05T06:45:56.308Z,635.00
2024-01-05T06:46:56.305Z,636.00
2024-01-05T06:47:56.461Z,632.00
2024-01-05T06:48:56.418Z,637.00
2024-01-05T06:49:56.577Z,639.00
2024-01-05T06:50:56.401Z,631.00
2024-01-05T06:51:56.402Z,635.00
2024-01-05T06:52:56.388Z,633.00
2024-01-05T06:53:56.435Z,630.00
2024-01-05T06:54:56.414Z,634.00
2024-01-05T06:55:56.418Z,627.00
2024-01-05T06:56:56.439Z,631.00
2024-01-05T06:57:56.518Z,629.00
2024-01-05T06:58:56.579Z,631.00
2024-01-05T06:59:56.637Z,626.00
2024-01-05T07:00:56.765Z,628.00
2024-01-05T07:01:56.737Z,628.00
2024-01-05T07:02:56.866Z,627.00
2024-01-05T07:03:56.922Z,623.00
2024-01-05T07:04:56.959Z,630.00
2024-01-05T07:05:57.080Z,631.00
2024-01-05T07:06:57.053Z,628.00
2024-01-05T07:07:57.122Z,627.00
2024-01-05T07:08:57.213Z,618.00
2024-01-05T07:09:57.254Z,624.00
2024-01-05T07:10:57.342Z,616.00
2024-01-05T07:11:57.548Z,625.00
2024-01-05T07:12:57.443Z,615.00
2024-01-05T07:13:57.513Z,619.00
2024-01-05T07:14:57.578Z,618.00
2024-01-05T07:15:57.550Z,619.00
2024-01-05T07:16:57.550Z,617.00
2024-01-05T07:17:57.696Z,620.00
2024-01-05T07:18:57.687Z,616.00
2024-01-05T07:19:57.617Z,615.00
2024-01-05T07:20:57.669Z,619.00
2024-01-05T07:21:57.640Z,614.00
2024-01-05T07:22:57.645Z,616.00
2024-01-05T07:23:57.659Z,622.00
2024-01-05T07:24:57.664Z,619.00
2024-01-05T07:25:57.710Z,619.00
2024-01-05T07:26:57.727Z,619.00
2024-01-05T07:27:57.743Z,619.00
2024-01-05T07:28:57.740Z,617.00
2024-01-05T07:29:57.764Z,622.00
2024-01-05T07:30:57.926Z,624.00
2024-01-05T07:31:57.781Z,627.00
2024-01-05T07:32:57.913Z,634.00
2024-01-05T07:33:57.933Z,630.00
2024-01-05T07:34:57.829Z,634.00
2024-01-05T07:35:57.951Z,636.00
2024-01-05T07:36:57.962Z,633.00
2024-01-05T07:37:57.926Z,636.00
2024-01-05T07:38:57.972Z,634.00
2024-01-05T07:39:57.959Z,631.00
2024-01-05T07:40:57.978Z,632.00
2024-01-05T07:41:57.993Z,629.00
2024-01-05T07:42:58.053Z,630.00
2024-01-05T07:43:57.993Z,628.00
2024-01-05T07:44:58.138Z,633.00
2024-01-05T07:45:58.486Z,633.00
2024-01-05T07:46:58.133Z,634.00
2024-01-05T07:47:58.257Z,633.00
2024-01-05T07:48:58.340Z,633.00
2024-01-05T07:49:58.234Z,623.00
2024-01-05T07:50:58.354Z,630.00
2024-01-05T07:51:58.272Z,629.00
2024-01-05T07:52:58.258Z,625.00
2024-01-05T07:53:58.320Z,629.00
2024-01-05T07:54:58.282Z,629.00
2024-01-05T07:55:58.320Z,626.00
2024-01-05T07:56:58.377Z,628.00
2024-01-05T07:57:58.449Z,633.00
2024-01-05T07:58:58.496Z,629.00
2024-01-05T07:59:58.660Z,630.00
2024-01-05T08:00:58.729Z,629.00
2024-01-05T08:01:58.721Z,630.00
2024-01-05T08:02:58.850Z,630.00
2024-01-05T08:03:58.929Z,628.00
2024-01-05T08:04:58.887Z,626.00
2024-01-05T08:05:59.053Z,625.00
2024-01-05T08:06:59.068Z,630.00
2024-01-05T08:07:59.061Z,626.00
2024-01-05T08:08:59.173Z,624.00
2024-01-05T08:09:59.181Z,629.00
2024-01-05T08:10:59.277Z,625.00
2024-01-05T08:11:59.340Z,623.00
2024-01-05T08:12:59.369Z,625.00
2024-01-05T08:13:59.501Z,624.00
2024-01-05T08:14:59.615Z,627.00
2024-01-05T08:15:59.596Z,626.00
2024-01-05T08:16:59.641Z,624.00
2024-01-05T08:17:59.784Z,626.00
2024-01-05T08:18:59.868Z,624.00
2024-01-05T08:19:59.914Z,624.00
2024-01-05T08:20:59.984Z,623.00
2024-01-05T08:22:00.021Z,624.00
2024-01-05T08:23:00.129Z,623.00
2024-01-05T08:24:00.274Z,622.00
2024-01-05T08:25:00.230Z,622.00
2024-01-05T08:26:00.385Z,621.00
2024-01-05T08:27:00.454Z,622.00
2024-01-05T08:28:00.489Z,620.00
2024-01-05T08:29:00.571Z,624.00
2024-01-05T08:30:00.737Z,624.00
2024-01-05T08:31:00.884Z,621.00
2024-01-05T08:32:00.902Z,621.00
2024-01-05T08:33:01.197Z,624.00
2024-01-05T08:34:01.150Z,622.00
2024-01-05T08:35:01.057Z,621.00
2024-01-05T08:36:01.125Z,618.00
2024-01-05T08:37:01.082Z,622.00
2024-01-05T08:38:01.094Z,622.00
2024-01-05T08:39:01.118Z,623.00
2024-01-05T08:40:01.140Z,621.00
2024-01-05T08:41:01.605Z,622.00
2024-01-05T08:42:01.136Z,622.00
2024-01-05T08:43:01.126Z,627.00
2024-01-05T08:44:01.250Z,626.00
2024-01-05T08:45:01.334Z,624.00
2024-01-05T08:52:06.638Z,625.00
2024-01-05T08:53:01.337Z,626.00
2024-01-05T08:54:01.368Z,628.00
2024-01-05T08:55:01.387Z,633.00
2024-01-05T08:56:01.719Z,636.00
2024-01-05T08:57:01.517Z,637.00
2024-01-05T08:58:01.571Z,627.00
2024-01-05T08:59:01.595Z,622.00
2024-01-05T09:00:01.730Z,620.00
2024-01-05T09:01:01.735Z,625.00
2024-01-05T09:02:01.594Z,624.00
2024-01-05T09:03:01.757Z,624.00
2024-01-05T09:04:01.645Z,621.00
2024-01-05T09:05:01.610Z,616.00
2024-01-05T09:06:01.641Z,617.00
2024-01-05T09:07:01.624Z,617.00
2024-01-05T09:08:01.636Z,621.00
2024-01-05T09:09:01.666Z,611.00
2024-01-05T09:10:01.646Z,611.00
2024-01-05T09:11:01.620Z,604.00
2024-01-05T09:12:01.666Z,608.00
2024-01-05T09:13:01.713Z,609.00
2024-01-05T09:14:01.626Z,593.00
2024-01-05T09:15:01.666Z,563.00
2024-01-05T09:16:01.600Z,577.00
2024-01-05T09:17:01.954Z,607.00
2024-01-05T09:18:01.756Z,575.00
2024-01-05T09:19:01.718Z,569.00
2024-01-05T09:20:01.624Z,605.00
2024-01-05T09:21:01.573Z,600.00
2024-01-05T09:22:01.519Z,600.00
2024-01-05T09:23:01.509Z,605.00
2024-01-05T09:24:01.546Z,609.00
2024-01-05T09:25:01.500Z,629.00
2024-01-05T09:26:01.430Z,647.00
2024-01-05T09:27:01.420Z,647.00
2024-01-05T09:28:01.396Z,651.00
2024-01-05T09:29:01.361Z,660.00
2024-01-05T09:30:01.416Z,720.00
2024-01-05T09:31:01.451Z,853.00
2024-01-05T09:32:01.324Z,877.00
2024-01-05T09:33:01.373Z,900.00
2024-01-05T09:34:01.353Z,904.00
2024-01-05T09:35:01.260Z,903.00
2024-01-05T09:36:01.271Z,934.00
2024-01-05T09:37:01.221Z,990.00
2024-01-05T09:38:01.203Z,1029.00
2024-01-05T09:39:01.223Z,1046.00
2024-01-05T09:40:01.212Z,1084.00
2024-01-05T09:41:01.166Z,1158.00
2024-01-05T09:42:01.171Z,1159.00
2024-01-05T09:43:01.109Z,1170.00
2024-01-05T09:44:01.080Z,1172.00
2024-01-05T09:45:01.122Z,1170.00
2024-01-05T09:46:01.049Z,1204.00
2024-01-05T09:47:01.025Z,1256.00
2024-01-05T09:48:01.126Z,1286.00
2024-01-05T09:49:01.167Z,1310.00
2024-01-05T09:50:01.351Z,1323.00
2024-01-05T09:51:01.020Z,1369.00
2024-01-05T09:52:00.892Z,1428.00
2024-01-05T09:53:00.884Z,1467.00
2024-01-05T09:54:00.919Z,1466.00
2024-01-05T09:55:00.857Z,1486.00
2024-01-05T09:56:00.833Z,1487.00
2024-01-05T09:57:00.888Z,1493.00
2024-01-05T09:58:00.804Z,1514.00
2024-01-05T09:59:00.808Z,1489.00
2024-01-05T10:00:00.866Z,1504.00
2024-01-05T10:01:00.852Z,1523.00
2024-01-05T10:02:00.756Z,1590.00
2024-01-05T10:03:00.829Z,1648.00
2024-01-05T10:04:01.087Z,1681.00
2024-01-05T10:05:00.747Z,1677.00
2024-01-05T10:06:01.005Z,1701.00
2024-01-05T10:07:00.823Z,1706.00
2024-01-05T10:08:00.802Z,1723.00
2024-01-05T10:09:00.852Z,1711.00
2024-01-05T10:10:00.887Z,1725.00
2024-01-05T10:11:00.920Z,1737.00
2024-01-05T10:12:00.969Z,1744.00
2024-01-05T10:13:00.927Z,1750.00
2024-01-05T10:14:00.900Z,1756.00
2024-01-05T10:15:00.923Z,1768.00
2024-01-05T10:16:00.914Z,1770.00
2024-01-05T10:17:00.878Z,1775.00
2024-01-05T10:18:01.053Z,1770.00
2024-01-05T10:19:00.968Z,1779.00
2024-01-05T10:20:00.944Z,1786.00
2024-01-05T10:21:00.899Z,1783.00
2024-01-05T10:22:00.852Z,1786.00
2024-01-05T10:23:00.854Z,1796.00
2024-01-05T10:24:00.843Z,1796.00
2024-01-05T10:25:00.836Z,1799.00
2024-01-05T10:26:00.834Z,1803.00
2024-01-05T10:27:00.857Z,1797.00
2024-01-05T10:28:00.815Z,1798.00
2024-01-05T10:29:00.812Z,1809.00
2024-01-05T10:30:00.940Z,1825.00
2024-01-05T10:31:00.851Z,1840.00
2024-01-05T10:32:00.776Z,1844.00
2024-01-05T10:33:00.851Z,1844.00
2024-01-05T10:34:00.802Z,1846.00
2024-01-05T10:35:00.874Z,1850.00
2024-01-05T10:36:00.802Z,1860.00
2024-01-05T10:37:00.751Z,1869.00
2024-01-05T10:38:00.725Z,1871.00
2024-01-05T10:39:00.730Z,1870.00
2024-01-05T10:40:00.717Z,1870.00
2024-01-05T10:41:00.704Z,1876.00
2024-01-05T10:42:00.709Z,1873.00
2024-01-05T10:43:00.669Z,1866.00
2024-01-05T10:44:00.652Z,1874.00
2024-01-05T10:45:00.940Z,1869.00
2024-01-05T10:46:00.633Z,1868.00
2024-01-05T10:47:00.622Z,1873.00
2024-01-05T10:48:00.821Z,1869.00
2024-01-05T10:49:00.692Z,1870.00
2024-01-05T10:50:00.958Z,1866.00
2024-01-05T10:51:00.604Z,1865.00
2024-01-05T10:52:00.545Z,1875.00
2024-01-05T10:53:00.531Z,1870.00
2024-01-05T10:54:00.559Z,1868.00
2024-01-05T10:55:00.496Z,1871.00
2024-01-05T10:56:00.492Z,1875.00
2024-01-05T10:57:00.491Z,1866.00
2024-01-05T10:58:00.462Z,1869.00
2024-01-05T10:59:00.484Z,1865.00
2024-01-05T11:00:00.715Z,1865.00
2024-01-05T11:01:00.521Z,1866.00
2024-01-05T11:02:00.430Z,1869.00
2024-01-05T11:03:00.474Z,1872.00
2024-01-05T11:04:00.527Z,1878.00
2024-01-05T11:05:00.432Z,1878.00
2024-01-05T11:06:00.512Z,1872.00
2024-01-05T11:07:00.496Z,1875.00
2024-01-05T11:08:00.369Z,1875.00
2024-01-05T11:09:00.439Z,1875.00
2024-01-05T11:10:00.332Z,1872.00
2024-01-05T11:11:00.351Z,1869.00
2024-01-05T11:12:00.354Z,1868.00
2024-01-05T11:13:00.318Z,1865.00
2024-01-05T11:14:00.336Z,1858.00
2024-01-05T11:15:00.386Z,1858.00
2024-01-05T11:16:00.294Z,1859.00
2024-01-05T11:17:00.295Z,1860.00
2024-01-05T11:18:00.454Z,1865.00
2024-01-05T11:19:00.420Z,1870.00
2024-01-05T11:20:00.465Z,1859.00
2024-01-05T11:21:00.310Z,1861.00
2024-01-05T11:22:00.220Z,1861.00
2024-01-05T11:23:00.233Z,1859.00
2024-01-05T11:24:00.276Z,1861.00
2024-01-05T11:25:00.264Z,1859.00
2024-01-05T11:26:00.226Z,1862.00
2024-01-05T11:27:00.270Z,1864.00
2024-01-05T11:28:00.179Z,1869.00
2024-01-05T11:29:00.159Z,1878.00
2024-01-05T11:30:00.256Z,1878.00
2024-01-05T11:31:00.261Z,1873.00
2024-01-05T11:32:00.141Z,1868.00
2024-01-05T11:33:00.201Z,1872.00
2024-01-05T11:34:00.235Z,1868.00
2024-01-05T11:35:00.102Z,1861.00
2024-01-05T11:36:00.158Z,1852.00
2024-01-05T11:37:00.057Z,1853.00
2024-01-05T11:38:00.055Z,1853.00
2024-01-05T11:39:00.130Z,1856.00
2024-01-05T11:40:00.015Z,1856.00
2024-01-05T11:41:00.030Z,1861.00
2024-01-05T11:42:00.043Z,1861.00
2024-01-05T11:43:00.002Z,1855.00
2024-01-05T11:43:59.991Z,1861.00
2024-01-05T11:45:00.151Z,1852.00
2024-01-05T11:46:00.006Z,1854.00
2024-01-05T11:47:00.003Z,1854.00
2024-01-05T11:48:00.212Z,1854.00
2024-01-05T11:49:00.181Z,1847.00
2024-01-05T11:50:00.027Z,1849.00
2024-01-05T11:51:00.026Z,1849.00
2024-01-05T11:51:59.950Z,1843.00
2024-01-05T11:52:59.951Z,1833.00
2024-01-05T11:53:59.985Z,1844.00
2024-01-05T11:54:59.921Z,1832.00
2024-01-05T11:55:59.949Z,1836.00
2024-01-05T11:57:00.036Z,1833.00
2024-01-05T11:58:00.039Z,1835.00
2024-01-05T11:59:00.073Z,1830.00
2024-01-05T12:00:00.122Z,1830.00
2024-01-05T12:01:00.092Z,1831.00
2024-01-05T12:02:00.032Z,1831.00
2024-01-05T12:03:00.054Z,1823.00
2024-01-05T12:04:00.097Z,1839.00
2024-01-05T12:04:59.989Z,1830.00
2024-01-05T12:06:00.073Z,1823.00
2024-01-05T12:06:59.965Z,1821.00
2024-01-05T12:08:00.008Z,1816.00
2024-01-05T12:09:00.087Z,1818.00
2024-01-05T12:10:00.210Z,1811.00
2024-01-05T12:11:00.181Z,1806.00
2024-01-05T12:12:01.054Z,1805.00
2024-01-05T12:13:00.210Z,1806.00
2024-01-05T12:14:00.254Z,1800.00
2024-01-05T12:15:00.398Z,1796.00
2024-01-05T12:16:02.256Z,1797.00
2024-01-05T12:17:00.369Z,1796.00
2024-01-05T12:18:00.480Z,1792.00
2024-01-05T12:19:00.707Z,1786.00
2024-01-05T12:20:00.737Z,1791.00
2024-01-05T12:21:00.564Z,1779.00
2024-01-05T12:22:00.561Z,1783.00
2024-01-05T12:23:00.616Z,1776.00
2024-01-05T12:24:00.685Z,1765.00